createdAt,value
2023-01-17T00:07:12.970Z,96775.11
2023-01-17T00:17:18.681Z,96768.11
2023-01-17T00:27:23.445Z,96754.00
2023-01-17T00:37:28.095Z,96747.30
2023-01-17T00:47:53.159Z,96745.83
2023-01-17T00:58:17.009Z,96754.70
2023-01-17T01:08:43.194Z,96751.40
2023-01-17T01:19:06.945Z,96737.55
2023-01-17T01:29:30.338Z,96717.41
2023-01-17T01:39:36.006Z,96717.78
2023-01-17T01:49:42.043Z,96708.75
2023-01-17T01:59:56.163Z,96696.79
2023-01-17T02:10:02.126Z,96687.92
2023-01-17T02:20:34.811Z,96682.05
2023-01-17T02:30:43.705Z,96687.36
2023-01-17T02:40:54.583Z,96685.30
2023-01-17T02:51:12.761Z,96670.82
2023-01-17T03:01:27.879Z,96658.90
2023-01-17T03:11:33.703Z,96650.74
2023-01-17T03:21:39.375Z,96652.02
2023-01-17T03:31:45.259Z,96658.99
2023-01-17T03:41:51.074Z,96663.14
2023-01-17T03:51:56.860Z,96664.89
2023-01-17T04:02:03.338Z,96659.48
2023-01-17T04:12:09.586Z,96650.41
2023-01-17T04:22:15.457Z,96649.20
2023-01-17T04:32:21.607Z,96632.58
2023-01-17T04:42:27.309Z,96639.23
2023-01-17T04:52:32.925Z,96648.40
2023-01-17T05:02:38.701Z,96653.52
2023-01-17T05:12:44.585Z,96657.02
2023-01-17T05:22:55.832Z,96663.88
2023-01-17T05:33:01.827Z,96670.05
2023-01-17T05:43:07.557Z,96680.92
2023-01-17T05:53:15.108Z,96675.12
2023-01-17T06:03:20.915Z,96683.89
2023-01-17T06:13:26.928Z,96688.95
2023-01-17T06:23:33.087Z,96706.84
2023-01-17T06:33:39.175Z,96719.92
2023-01-17T06:43:44.927Z,96713.90
2023-01-17T06:53:51.718Z,96722.85
2023-01-17T07:03:57.655Z,96739.30
2023-01-17T07:14:03.560Z,96731.69
2023-01-17T07:24:10.421Z,96731.34
2023-01-17T07:34:15.983Z,96739.58
2023-01-17T07:44:21.559Z,96748.27
2023-01-17T07:54:27.841Z,96754.61
2023-01-17T08:04:35.296Z,96756.34
2023-01-17T08:14:41.213Z,96757.13
2023-01-17T08:24:47.573Z,96776.20
2023-01-17T08:34:53.420Z,96786.55
2023-01-17T08:44:59.297Z,96791.20
2023-01-17T08:55:06.573Z,96793.48
2023-01-17T09:05:13.653Z,96797.59
2023-01-17T09:15:20.260Z,96802.45
2023-01-17T09:25:26.855Z,96817.49
2023-01-17T09:35:32.653Z,96828.55
2023-01-17T09:45:38.341Z,96824.33
2023-01-17T09:55:49.846Z,96824.94
2023-01-17T10:06:05.637Z,96826.61
2023-01-17T10:16:26.069Z,96833.01
2023-01-17T10:26:33.753Z,96831.24
2023-01-17T10:36:42.927Z,96840.98
2023-01-17T10:46:56.872Z,96850.83
2023-01-17T10:57:02.688Z,96855.10
2023-01-17T11:07:18.096Z,96853.74
2023-01-17T11:17:24.157Z,96842.60
2023-01-17T11:27:32.128Z,96836.89
2023-01-17T11:37:38.735Z,96836.70
2023-01-17T11:47:44.658Z,96834.43
2023-01-17T11:57:52.482Z,96834.91
2023-01-17T12:08:07.952Z,96835.17
2023-01-17T12:18:32.301Z,96842.69
2023-01-17T12:29:11.715Z,96847.52
2023-01-17T12:39:22.162Z,96845.17
2023-01-17T12:49:39.551Z,96849.24
2023-01-17T12:59:51.895Z,96851.15
2023-01-17T13:10:03.871Z,96858.42
2023-01-17T13:20:19.673Z,96867.89
2023-01-17T13:30:43.229Z,96865.77
2023-01-17T13:40:54.748Z,96871.76
2023-01-17T13:51:03.306Z,96878.90
2023-01-17T14:01:14.028Z,96891.48
2023-01-17T14:11:20.269Z,96907.87
2023-01-17T14:21:28.366Z,96927.83
2023-01-17T14:31:34.471Z,96932.84
2023-01-17T14:41:40.726Z,96948.82
2023-01-17T14:51:58.728Z,96955.54
2023-01-17T15:02:08.360Z,96985.31
2023-01-17T15:12:15.718Z,97025.02
2023-01-17T15:22:23.646Z,97048.45
2023-01-17T15:32:31.505Z,97070.10
2023-01-17T15:42:40.076Z,97072.37
2023-01-17T15:52:52.226Z,97086.33
2023-01-17T16:02:59.014Z,97089.88
2023-01-17T16:13:06.136Z,97092.05
2023-01-17T16:23:10.966Z,97092.03
2023-01-17T16:33:17.796Z,97082.34
2023-01-17T16:43:23.542Z,97081.53
2023-01-17T16:53:30.179Z,97082.19
2023-01-17T17:03:35.856Z,97081.63
2023-01-17T17:13:41.587Z,97083.63
2023-01-17T17:23:50.999Z,97087.58
2023-01-17T17:34:00.831Z,97089.42
2023-01-17T17:44:07.031Z,97080.19
2023-01-17T17:54:14.317Z,97078.49
2023-01-17T18:04:21.585Z,97082.91
2023-01-17T18:14:27.442Z,97096.73
2023-01-17T18:24:33.447Z,97093.64
2023-01-17T18:34:41.485Z,97102.17
2023-01-17T18:44:47.540Z,97120.85
2023-01-17T18:54:53.590Z,97134.23
2023-01-17T19:04:59.557Z,97165.37
2023-01-17T19:15:06.146Z,97172.00
2023-01-17T19:25:12.821Z,97190.61
2023-01-17T19:35:17.622Z,97209.16
2023-01-17T19:45:24.049Z,97216.94
2023-01-17T19:55:28.429Z,97217.95
2023-01-17T20:05:35.581Z,97216.45
2023-01-17T20:15:41.508Z,97214.15
2023-01-17T20:25:59.200Z,97202.77
2023-01-17T20:36:10.544Z,97203.13
2023-01-17T20:46:17.995Z,97202.27
2023-01-17T20:56:24.535Z,97215.64
2023-01-17T21:06:30.911Z,97210.43
2023-01-17T21:16:36.070Z,97195.02
2023-01-17T21:26:44.526Z,97196.70
2023-01-17T21:36:50.615Z,97188.66
2023-01-17T21:47:00.029Z,97177.21
2023-01-17T21:57:23.599Z,97174.89
2023-01-17T22:07:29.788Z,97180.31
2023-01-17T22:17:38.430Z,97195.39
2023-01-17T22:27:44.651Z,97191.11
2023-01-17T22:37:50.991Z,97195.41
2023-01-17T22:47:57.132Z,97184.55
2023-01-17T22:58:03.181Z,97178.85
2023-01-17T23:08:09.092Z,97186.56
2023-01-17T23:18:32.604Z,97192.94
2023-01-17T23:28:38.806Z,97187.22
2023-01-17T23:38:44.833Z,97172.11
2023-01-17T23:48:50.920Z,97154.90
2023-01-17T23:58:57.002Z,97150.63
